Time;durP1;ratioP1;P1;durP2;ratioP2;P2;SDS_P1;SDS_P2;PMS_P1;PMS_P2;Temp;Humidity;BMP_temperature;BMP_pressure;BME280_temperature;BME280_humidity;BME280_pressure;Samples;Min_cycle;Max_cycle;Signal;HPM_P1;HPM_P2
2020/12/01 00:00:17;;;;;;;2.80;0.55;;;3.50;99.90;;;;;;5113267;28;20073;-91
2020/12/01 00:02:43;;;;;;;5.43;0.60;;;3.50;99.90;;;;;;5113203;28;20501;-92
2020/12/01 00:05:12;;;;;;;7.95;1.38;;;3.50;99.90;;;;;;5113043;28;20047;-90
2020/12/01 00:07:38;;;;;;;2.78;1.38;;;3.50;99.90;;;;;;5113295;28;20031;-91
2020/12/01 00:10:06;;;;;;;7.50;1.20;;;3.50;99.90;;;;;;5113428;28;20066;-90
2020/12/01 00:12:32;;;;;;;2.75;0.77;;;3.50;99.90;;;;;;5113180;28;20495;-89
2020/12/01 00:14:57;;;;;;;3.40;0.80;;;3.40;99.90;;;;;;5112825;28;20032;-90
2020/12/01 00:17:23;;;;;;;6.55;2.55;;;3.40;99.90;;;;;;5113125;28;20032;-91
2020/12/01 00:19:49;;;;;;;3.97;0.93;;;3.50;99.90;;;;;;5113781;28;20027;-91
2020/12/01 00:22:14;;;;;;;3.88;0.60;;;3.40;99.90;;;;;;5114953;28;20022;-91
2020/12/01 00:24:40;;;;;;;5.72;0.90;;;3.40;99.90;;;;;;5113158;28;20032;-91
2020/12/01 00:27:06;;;;;;;1.23;0.50;;;3.40;99.90;;;;;;5112881;28;20042;-91
2020/12/01 00:29:31;;;;;;;3.80;0.80;;;3.40;99.90;;;;;;5112649;28;20034;-91
2020/12/01 00:31:57;;;;;;;3.03;0.70;;;3.40;99.90;;;;;;5112975;28;20019;-91
2020/12/01 00:34:23;;;;;;;2.22;0.65;;;3.30;99.90;;;;;;5113062;28;20143;-91
2020/12/01 00:36:48;;;;;;;4.95;1.13;;;3.40;99.90;;;;;;5113031;28;20043;-90
2020/12/01 00:39:14;;;;;;;6.00;0.77;;;3.40;99.90;;;;;;5112709;28;20045;-91
2020/12/01 00:41:40;;;;;;;2.22;0.68;;;3.40;99.90;;;;;;5112762;28;20472;-90
2020/12/01 00:44:06;;;;;;;4.32;0.80;;;3.30;99.90;;;;;;5112701;28;20024;-91
2020/12/01 00:46:31;;;;;;;2.47;0.77;;;3.30;99.90;;;;;;5113141;28;20365;-91
2020/12/01 00:48:57;;;;;;;4.05;1.00;;;3.30;99.90;;;;;;5112931;28;20051;-89
2020/12/01 00:51:24;;;;;;;3.13;0.82;;;3.30;99.90;;;;;;5114293;28;20024;-91
2020/12/01 00:53:50;;;;;;;3.85;0.90;;;3.30;99.90;;;;;;5116756;28;20500;-90
2020/12/01 00:56:23;;;;;;;4.18;0.68;;;3.30;99.90;;;;;;5117055;28;20030;-90
2020/12/01 00:58:50;;;;;;;3.00;0.95;;;3.30;99.90;;;;;;5116522;28;20022;-91
2020/12/01 01:01:17;;;;;;;4.20;1.13;;;3.30;99.90;;;;;;5116515;28;20027;-91
2020/12/01 01:03:42;;;;;;;5.05;0.90;;;3.30;99.90;;;;;;5116357;28;20024;-90
2020/12/01 01:06:12;;;;;;;5.40;1.77;;;3.30;99.90;;;;;;5116371;28;20127;-90
2020/12/01 01:08:41;;;;;;;4.05;0.80;;;3.40;99.90;;;;;;5116412;28;20084;-90
2020/12/01 01:11:08;;;;;;;3.95;1.08;;;3.30;99.90;;;;;;5116454;28;20023;-90
2020/12/01 01:13:35;;;;;;;5.38;0.80;;;3.30;99.90;;;;;;5116295;28;20031;-90
2020/12/01 01:16:01;;;;;;;3.50;0.70;;;3.30;99.90;;;;;;5116380;28;20024;-91
2020/12/01 01:18:26;;;;;;;2.30;0.73;;;3.30;99.90;;;;;;5116067;28;20497;-91
2020/12/01 01:20:52;;;;;;;3.35;0.63;;;3.20;99.90;;;;;;5116321;28;20027;-90
2020/12/01 01:23:18;;;;;;;7.32;0.95;;;3.20;99.90;;;;;;5115991;28;20385;-91
2020/12/01 01:25:44;;;;;;;2.55;0.50;;;3.20;99.90;;;;;;5115905;28;20084;-89
2020/12/01 01:28:10;;;;;;;2.55;0.68;;;3.10;99.90;;;;;;5115709;28;20020;-89
2020/12/01 01:30:39;;;;;;;3.05;0.80;;;3.10;99.90;;;;;;5115759;28;20431;-91
2020/12/01 01:33:05;;;;;;;7.55;0.93;;;3.10;99.90;;;;;;5115781;28;20080;-91
2020/12/01 01:35:34;;;;;;;4.88;0.93;;;3.10;99.90;;;;;;5115949;28;20065;-90
2020/12/01 01:38:01;;;;;;;3.55;0.68;;;3.10;99.90;;;;;;5118668;28;20023;-91
2020/12/01 01:40:29;;;;;;;3.58;0.77;;;3.10;99.90;;;;;;5115848;28;20040;-92
2020/12/01 01:42:55;;;;;;;3.92;0.70;;;3.00;99.90;;;;;;5116598;28;20042;-91
2020/12/01 01:45:40;;;;;;;3.22;0.68;;;3.00;99.90;;;;;;5119442;28;20031;-91
2020/12/01 01:48:16;;;;;;;1.30;0.55;;;3.00;99.90;;;;;;5119215;28;20020;-91
2020/12/01 01:51:04;;;;;;;8.52;1.80;;;3.00;99.90;;;;;;5119297;28;20116;-90
2020/12/01 01:53:33;;;;;;;3.13;0.90;;;2.90;99.90;;;;;;5117676;28;20526;-91
2020/12/01 01:56:05;;;;;;;2.00;0.70;;;2.90;99.90;;;;;;5118129;28;20404;-90
2020/12/01 01:58:36;;;;;;;2.47;0.80;;;2.90;99.90;;;;;;5115634;28;20031;-89
2020/12/01 02:01:09;;;;;;;7.32;1.35;;;2.90;99.90;;;;;;5115595;28;20030;-91
2020/12/01 02:03:34;;;;;;;3.17;1.10;;;2.80;99.90;;;;;;5115592;28;20030;-90
2020/12/01 02:06:01;;;;;;;2.25;0.80;;;2.80;99.90;;;;;;5115431;28;20044;-89
2020/12/01 02:08:27;;;;;;;6.40;0.75;;;2.80;99.90;;;;;;5115158;28;20038;-91
2020/12/01 02:10:55;;;;;;;3.33;0.70;;;2.80;99.90;;;;;;5114743;28;20027;-91
2020/12/01 02:13:33;;;;;;;3.05;0.65;;;2.70;99.90;;;;;;5114402;28;20023;-90
2020/12/01 02:15:59;;;;;;;1.65;0.70;;;2.70;99.90;;;;;;5114238;28;20068;-90
2020/12/01 02:18:30;;;;;;;7.57;1.02;;;2.70;99.90;;;;;;5114462;28;20027;-90
2020/12/01 02:20:57;;;;;;;6.60;0.93;;;2.70;99.90;;;;;;5114478;28;20503;-90
2020/12/01 02:23:23;;;;;;;1.90;0.68;;;2.70;99.90;;;;;;5114870;28;20039;-90
2020/12/01 02:25:49;;;;;;;5.05;0.88;;;2.70;99.90;;;;;;5115271;28;20039;-90
2020/12/01 02:28:15;;;;;;;2.25;0.90;;;2.80;99.90;;;;;;5115355;28;20031;-90
2020/12/01 02:30:41;;;;;;;8.82;2.22;;;2.70;99.90;;;;;;5115179;28;20088;-90
2020/12/01 02:33:06;;;;;;;7.68;0.95;;;2.70;99.90;;;;;;5115313;28;20059;-90
2020/12/01 02:35:32;;;;;;;2.53;0.70;;;2.70;99.90;;;;;;5115376;28;20024;-91
2020/12/01 02:37:58;;;;;;;5.28;0.90;;;2.70;99.90;;;;;;5114963;28;20030;-91
2020/12/01 02:40:23;;;;;;;3.97;0.60;;;2.60;99.90;;;;;;5114757;28;20387;-90
2020/12/01 02:42:53;;;;;;;9.00;0.77;;;2.60;99.90;;;;;;5115168;28;20484;-90
2020/12/01 02:45:19;;;;;;;6.60;0.82;;;2.60;99.90;;;;;;5115017;28;20053;-90
2020/12/01 02:47:45;;;;;;;5.60;0.75;;;2.60;99.90;;;;;;5114582;28;20028;-90
2020/12/01 02:50:12;;;;;;;5.10;1.60;;;2.60;99.90;;;;;;5114679;28;20027;-90
2020/12/01 02:52:38;;;;;;;2.72;0.73;;;2.60;99.90;;;;;;5114821;28;20027;-89
2020/12/01 02:55:04;;;;;;;1.10;0.55;;;2.60;99.90;;;;;;5114620;28;20035;-90
2020/12/01 02:57:30;;;;;;;2.88;0.68;;;2.60;99.90;;;;;;5114535;28;20023;-89
2020/12/01 02:59:55;;;;;;;6.60;0.90;;;2.60;99.90;;;;;;5114498;28;20388;-91
2020/12/01 03:02:22;;;;;;;9.70;2.78;;;2.60;99.90;;;;;;5114536;28;20115;-89
2020/12/01 03:04:48;;;;;;;6.55;0.80;;;2.60;99.90;;;;;;5114273;28;20074;-90
2020/12/01 03:07:14;;;;;;;5.25;0.85;;;2.60;99.90;;;;;;5114169;28;20051;-90
2020/12/01 03:09:39;;;;;;;2.47;0.52;;;2.60;99.90;;;;;;5113561;28;20150;-90
2020/12/01 03:12:05;;;;;;;6.88;0.90;;;2.60;99.90;;;;;;5113756;28;20055;-90
2020/12/01 03:14:31;;;;;;;5.65;0.88;;;2.70;99.90;;;;;;5113363;28;20105;-90
2020/12/01 03:16:56;;;;;;;6.07;0.73;;;2.70;99.90;;;;;;5113885;28;20035;-90
2020/12/01 03:19:22;;;;;;;4.43;0.95;;;2.70;99.90;;;;;;5113672;28;20055;-91
2020/12/01 03:21:48;;;;;;;3.88;0.68;;;2.70;99.90;;;;;;5113803;28;20055;-91
2020/12/01 03:24:14;;;;;;;7.50;1.10;;;2.70;99.90;;;;;;5113593;28;20032;-91
2020/12/01 03:26:40;;;;;;;10.38;1.15;;;2.80;99.90;;;;;;5113907;28;20027;-91
2020/12/01 03:29:05;;;;;;;7.85;1.90;;;2.70;99.90;;;;;;5114238;28;20096;-92
2020/12/01 03:31:31;;;;;;;8.52;2.25;;;2.70;99.90;;;;;;5119679;28;20038;-91
2020/12/01 03:33:57;;;;;;;5.20;1.48;;;2.80;99.90;;;;;;5114694;28;20016;-91
2020/12/01 03:36:23;;;;;;;10.98;2.33;;;2.80;99.90;;;;;;5113331;28;20027;-91
2020/12/01 03:38:49;;;;;;;11.80;2.97;;;2.80;99.90;;;;;;5113426;28;20028;-90
2020/12/01 03:41:15;;;;;;;11.85;2.45;;;2.80;99.90;;;;;;5113508;28;20036;-91
2020/12/01 03:43:41;;;;;;;12.35;1.95;;;2.80;99.90;;;;;;5113501;28;20020;-90
2020/12/01 03:46:07;;;;;;;7.10;1.70;;;2.80;99.90;;;;;;5113361;28;20542;-90
2020/12/01 03:48:33;;;;;;;6.40;1.88;;;2.70;99.90;;;;;;5113631;28;20093;-90
2020/12/01 03:50:59;;;;;;;7.25;1.98;;;2.70;99.90;;;;;;5113665;28;20024;-91
2020/12/01 03:53:24;;;;;;;8.23;2.13;;;2.70;99.90;;;;;;5113305;28;20024;-89
2020/12/01 03:55:50;;;;;;;8.25;0.80;;;2.70;99.90;;;;;;5113096;28;20028;-91
2020/12/01 03:58:17;;;;;;;4.35;0.70;;;2.80;99.90;;;;;;5113717;28;20023;-91
2020/12/01 04:00:43;;;;;;;2.53;0.57;;;2.80;99.90;;;;;;5113048;28;20027;-91
2020/12/01 04:03:09;;;;;;;6.53;1.52;;;2.80;99.90;;;;;;5113486;28;20016;-91
2020/12/01 04:05:34;;;;;;;8.48;0.77;;;2.80;99.90;;;;;;5113033;28;20039;-91
2020/12/01 04:08:00;;;;;;;4.72;0.80;;;2.80;99.90;;;;;;5113089;28;20023;-90
2020/12/01 04:10:26;;;;;;;5.38;1.15;;;2.80;99.90;;;;;;5113376;28;20035;-90
2020/12/01 04:12:53;;;;;;;4.03;0.77;;;2.80;99.90;;;;;;5113371;28;20487;-91
2020/12/01 04:15:22;;;;;;;4.90;0.80;;;2.80;99.90;;;;;;5113477;28;20072;-91
2020/12/01 04:17:48;;;;;;;2.85;0.65;;;2.80;99.90;;;;;;5112996;28;20487;-91
2020/12/01 04:20:14;;;;;;;7.38;1.00;;;2.80;99.90;;;;;;5113075;28;20030;-90
2020/12/01 04:22:39;;;;;;;3.38;0.90;;;2.80;99.90;;;;;;5113243;28;20059;-91
2020/12/01 04:25:08;;;;;;;3.00;0.43;;;2.80;99.90;;;;;;5113224;28;20067;-92
2020/12/01 04:27:35;;;;;;;2.20;0.80;;;2.80;99.90;;;;;;5116566;28;20092;-91
2020/12/01 04:30:02;;;;;;;8.50;0.85;;;2.80;99.90;;;;;;5117328;28;20039;-92
2020/12/01 04:32:28;;;;;;;4.05;0.65;;;2.80;99.90;;;;;;5117393;28;20027;-90
2020/12/01 04:34:53;;;;;;;5.55;0.70;;;2.80;99.90;;;;;;5117106;28;20031;-89
2020/12/01 04:37:19;;;;;;;5.88;0.80;;;2.80;99.90;;;;;;5116712;28;20046;-92
2020/12/01 04:39:45;;;;;;;7.60;0.80;;;2.80;99.90;;;;;;5116797;28;20032;-90
2020/12/01 04:42:18;;;;;;;7.03;2.13;;;2.80;99.90;;;;;;5117348;28;20024;-91
2020/12/01 04:44:48;;;;;;;7.80;2.25;;;2.80;99.90;;;;;;5115441;28;20031;-91
2020/12/01 04:47:20;;;;;;;5.35;0.70;;;2.70;99.90;;;;;;5117104;28;20035;-91
2020/12/01 04:49:54;;;;;;;2.95;0.70;;;2.70;99.90;;;;;;5116689;28;20028;-90
2020/12/01 04:52:25;;;;;;;3.15;0.70;;;2.70;99.90;;;;;;5116793;28;20028;-90
2020/12/01 04:55:28;;;;;;;5.43;0.88;;;2.70;99.90;;;;;;5116571;28;20042;-91
2020/12/01 04:58:15;;;;;;;4.22;0.70;;;2.70;99.90;;;;;;5116649;28;20027;-90
2020/12/01 05:01:02;;;;;;;5.22;0.82;;;2.70;99.90;;;;;;5116607;28;20053;-90
2020/12/01 05:03:44;;;;;;;6.15;1.17;;;2.70;99.90;;;;;;5117040;28;20032;-91
2020/12/01 05:09:04;;;;;;;4.00;0.82;;;2.60;99.90;;;;;;5117591;28;20151;-90
2020/12/01 05:11:56;;;;;;;6.72;0.52;;;2.60;99.90;;;;;;5116699;28;20119;-90
2020/12/01 05:14:42;;;;;;;6.22;0.88;;;2.60;99.90;;;;;;5116419;28;20396;-90
2020/12/01 05:17:36;;;;;;;6.90;1.35;;;2.60;99.90;;;;;;5116166;28;20054;-90
2020/12/01 05:20:04;;;;;;;3.35;0.52;;;2.60;99.90;;;;;;5116031;28;20028;-90
2020/12/01 05:22:31;;;;;;;7.57;0.88;;;2.50;99.90;;;;;;5115681;28;20468;-91
2020/12/01 05:24:56;;;;;;;5.55;0.70;;;2.50;99.90;;;;;;5115736;28;20088;-90
2020/12/01 05:27:27;;;;;;;4.85;1.35;;;2.50;99.90;;;;;;5115330;28;20023;-89
2020/12/01 05:30:11;;;;;;;2.63;0.80;;;2.50;99.90;;;;;;5115243;28;20035;-90
2020/12/01 05:32:56;;;;;;;1.98;0.80;;;2.50;99.90;;;;;;5115385;28;20028;-89
2020/12/01 05:35:31;;;;;;;4.20;0.80;;;2.40;99.90;;;;;;5097952;28;20498;-91
2020/12/01 05:38:14;;;;;;;4.65;0.60;;;2.40;99.90;;;;;;5114980;28;20024;-90
2020/12/01 05:40:50;;;;;;;2.20;0.57;;;2.40;99.90;;;;;;5115406;28;20027;-89
2020/12/01 05:43:30;;;;;;;5.60;0.80;;;2.40;99.90;;;;;;5115486;28;20031;-90
2020/12/01 05:46:16;;;;;;;3.30;0.70;;;2.30;99.90;;;;;;5115239;28;20089;-93
2020/12/01 05:48:52;;;;;;;3.97;1.45;;;2.30;99.90;;;;;;5098620;28;20032;-91
2020/12/01 05:51:26;;;;;;;5.55;0.80;;;2.30;99.90;;;;;;5115543;28;20023;-91
2020/12/01 05:53:59;;;;;;;2.05;0.73;;;2.30;99.90;;;;;;5115014;28;20122;-89
2020/12/01 05:56:26;;;;;;;4.43;0.80;;;2.20;99.90;;;;;;5115190;28;20035;-92
2020/12/01 05:59:05;;;;;;;1.75;0.55;;;2.20;99.90;;;;;;5114988;28;20118;-90
2020/12/01 06:01:43;;;;;;;4.97;0.80;;;2.30;99.90;;;;;;5114969;28;20059;-89
2020/12/01 06:04:15;;;;;;;1.27;0.50;;;2.20;99.90;;;;;;5114678;28;20093;-90
2020/12/01 06:06:54;;;;;;;11.40;0.93;;;2.20;99.90;;;;;;5115548;28;20024;-90
2020/12/01 06:09:47;;;;;;;2.80;0.70;;;2.20;99.90;;;;;;5115482;28;20476;-90
2020/12/01 06:12:33;;;;;;;2.63;0.90;;;2.20;99.90;;;;;;5114622;28;20027;-91
2020/12/01 06:15:02;;;;;;;6.15;1.10;;;2.10;99.90;;;;;;5114592;28;20028;-90
2020/12/01 06:17:50;;;;;;;4.13;0.65;;;2.20;99.90;;;;;;5114602;28;20476;-89
2020/12/01 06:20:20;;;;;;;2.53;0.70;;;2.20;99.90;;;;;;5114669;28;20452;-90
2020/12/01 06:23:14;;;;;;;6.93;0.80;;;2.20;99.90;;;;;;5114989;28;20118;-90
2020/12/01 06:25:42;;;;;;;5.22;1.02;;;2.20;99.90;;;;;;5115077;28;20039;-92
2020/12/01 06:28:47;;;;;;;1.60;0.35;;;2.20;99.90;;;;;;5114686;28;20561;-90
2020/12/01 06:31:20;;;;;;;3.03;0.55;;;2.20;99.90;;;;;;5115150;28;20076;-90
2020/12/01 06:34:28;;;;;;;3.67;1.35;;;2.20;99.90;;;;;;5114610;28;20030;-90
2020/12/01 06:37:23;;;;;;;3.08;1.00;;;2.20;99.90;;;;;;5109641;28;20078;-90
2020/12/01 06:40:00;;;;;;;1.60;0.52;;;2.10;99.90;;;;;;5076021;28;20036;-90
2020/12/01 06:42:31;;;;;;;4.80;1.00;;;2.10;99.90;;;;;;5117301;28;20135;-89
2020/12/01 06:45:06;;;;;;;6.88;1.63;;;2.10;99.90;;;;;;5114429;28;20078;-89
2020/12/01 06:47:33;;;;;;;6.30;0.77;;;2.10;99.90;;;;;;5114346;28;20031;-89
2020/12/01 06:50:07;;;;;;;4.70;0.52;;;2.10;99.90;;;;;;5113878;28;20043;-92
2020/12/01 06:52:33;;;;;;;4.65;0.80;;;2.10;99.90;;;;;;5112647;28;20031;-91
2020/12/01 06:54:59;;;;;;;5.55;0.95;;;2.10;99.90;;;;;;5112079;28;20036;-91
2020/12/01 06:57:34;;;;;;;4.00;0.70;;;2.00;99.90;;;;;;5112306;28;20024;-92
2020/12/01 07:00:00;;;;;;;11.93;1.30;;;2.00;99.90;;;;;;5112526;28;20059;-91
2020/12/01 07:02:28;;;;;;;3.63;0.70;;;2.00;99.90;;;;;;5109242;28;20061;-90
2020/12/01 07:05:30;;;;;;;5.22;0.63;;;2.00;99.90;;;;;;5112248;28;20052;-92
2020/12/01 07:07:56;;;;;;;3.08;0.77;;;2.00;99.90;;;;;;5122289;27;20040;-90
2020/12/01 07:10:29;;;;;;;0.60;0.40;;;2.00;99.90;;;;;;5111988;28;20026;-88
2020/12/01 07:13:29;;;;;;;3.90;0.70;;;1.90;99.90;;;;;;5111216;28;20027;-91
2020/12/01 07:16:22;;;;;;;5.75;0.75;;;2.00;99.90;;;;;;5121406;27;20031;-91
2020/12/01 07:18:48;;;;;;;4.68;0.60;;;2.00;99.90;;;;;;5110072;28;20027;-92
2020/12/01 07:21:42;;;;;;;7.95;0.90;;;1.90;99.90;;;;;;5111537;28;20485;-91
2020/12/01 07:24:36;;;;;;;6.70;0.80;;;1.90;99.90;;;;;;5110518;28;20065;-92
2020/12/01 07:27:14;;;;;;;1.95;0.40;;;1.90;99.90;;;;;;5110334;28;20031;-91
2020/12/01 07:29:46;;;;;;;5.43;1.20;;;1.90;99.90;;;;;;5112194;28;20024;-92
2020/12/01 07:32:20;;;;;;;3.78;0.60;;;1.90;99.90;;;;;;5112899;28;20020;-91
2020/12/01 07:34:47;;;;;;;2.65;0.52;;;1.90;99.90;;;;;;5112043;28;20051;-91
2020/12/01 07:37:51;;;;;;;3.83;0.68;;;1.90;99.90;;;;;;5113405;28;20027;-92
2020/12/01 07:40:27;;;;;;;8.05;0.70;;;1.90;99.90;;;;;;5111667;28;20039;-90
2020/12/01 07:43:04;;;;;;;2.97;0.80;;;1.90;99.90;;;;;;5123047;27;20556;-91
2020/12/01 07:45:32;;;;;;;8.52;0.93;;;1.90;99.90;;;;;;5110551;28;20028;-91
2020/12/01 07:48:01;;;;;;;4.40;1.25;;;1.90;99.90;;;;;;5112925;28;20110;-90
2020/12/01 07:50:29;;;;;;;3.53;0.50;;;1.90;99.90;;;;;;5111260;28;20019;-91
2020/12/01 07:53:01;;;;;;;6.13;0.73;;;1.80;99.90;;;;;;5111270;28;20091;-90
2020/12/01 07:55:38;;;;;;;6.15;0.80;;;1.80;99.90;;;;;;5123841;27;20027;-89
2020/12/01 07:58:25;;;;;;;8.98;1.65;;;1.80;99.90;;;;;;5112740;28;20040;-93
2020/12/01 08:01:17;;;;;;;2.78;0.77;;;1.80;99.90;;;;;;5112090;28;20064;-89
2020/12/01 08:03:43;;;;;;;1.65;0.55;;;1.80;99.90;;;;;;5107438;28;20149;-89
2020/12/01 08:06:15;;;;;;;8.70;1.00;;;1.80;99.90;;;;;;5111843;28;20073;-91
2020/12/01 08:08:44;;;;;;;1.65;0.60;;;1.70;99.90;;;;;;5112138;28;20027;-90
2020/12/01 08:11:14;;;;;;;2.53;0.50;;;1.80;99.90;;;;;;5111113;28;20023;-92
2020/12/01 08:13:42;;;;;;;9.25;1.00;;;1.80;99.90;;;;;;5111856;28;20046;-93
2020/12/01 08:16:15;;;;;;;7.15;1.10;;;1.80;99.90;;;;;;5110839;28;20031;-91
2020/12/01 08:18:41;;;;;;;7.15;1.05;;;1.80;99.90;;;;;;5110369;28;20495;-91
2020/12/01 08:21:07;;;;;;;3.35;0.75;;;1.80;99.90;;;;;;5112307;28;20476;-91
2020/12/01 08:23:34;;;;;;;6.45;0.77;;;1.80;99.90;;;;;;5111689;28;20023;-89
2020/12/01 08:26:11;;;;;;;3.22;0.60;;;1.80;99.90;;;;;;5111770;28;20032;-89
2020/12/01 08:28:41;;;;;;;3.83;0.68;;;1.80;99.90;;;;;;5128370;28;20024;-90
2020/12/01 08:31:22;;;;;;;6.93;0.43;;;1.80;99.90;;;;;;5113687;28;20030;-94
2020/12/01 08:34:22;;;;;;;6.28;0.98;;;1.90;99.90;;;;;;5113264;28;20027;-92
2020/12/01 08:37:22;;;;;;;3.67;0.88;;;2.00;99.90;;;;;;5112996;28;20620;-92
2020/12/01 08:40:04;;;;;;;4.47;1.00;;;2.10;99.90;;;;;;5086323;28;20146;-93
2020/12/01 08:42:42;;;;;;;3.05;0.75;;;2.20;99.90;;;;;;5112672;28;20106;-91
2020/12/01 08:45:13;;;;;;;1.98;1.02;;;2.30;99.90;;;;;;5111940;28;20373;-92
2020/12/01 08:47:43;;;;;;;3.97;1.67;;;2.40;99.90;;;;;;5112849;28;20023;-88
2020/12/01 08:50:19;;;;;;;4.30;1.00;;;2.40;99.90;;;;;;5096991;28;20019;-92
2020/12/01 08:52:46;;;;;;;5.53;0.80;;;2.50;99.90;;;;;;5101010;28;20593;-92
2020/12/01 08:55:23;;;;;;;5.07;1.15;;;2.50;99.90;;;;;;5093206;28;20028;-91
2020/12/01 08:58:10;;;;;;;7.90;0.93;;;2.50;99.90;;;;;;5091115;28;20036;-92
2020/12/01 09:00:36;;;;;;;8.07;1.05;;;2.60;99.90;;;;;;5103091;28;20038;-91
2020/12/01 09:03:10;;;;;;;4.10;0.70;;;2.60;99.90;;;;;;5112247;28;20381;-91
2020/12/01 09:05:47;;;;;;;5.32;0.93;;;2.70;99.90;;;;;;5111425;28;20117;-91
2020/12/01 09:12:08;;;;;;;1.00;0.47;;;2.70;99.90;;;;;;5101380;28;20039;-91
2020/12/01 09:14:22;;;;;;;2.70;0.90;;;2.80;99.90;;;;;;5098927;28;20024;-92
2020/12/01 09:22:30;;;;;;;12.35;1.95;;;3.20;99.90;;;;;;5105480;28;20520;-92
2020/12/01 09:25:14;;;;;;;;;;;3.40;99.90;;;;;;5103082;28;20496;-93
2020/12/01 09:27:41;;;;;;;7.22;1.67;;;3.50;99.90;;;;;;5094503;28;19908;-91
2020/12/01 09:30:17;;;;;;;7.10;1.50;;;3.70;99.90;;;;;;5114521;28;20035;-92
2020/12/01 09:32:43;;;;;;;7.35;1.92;;;3.80;99.90;;;;;;5114168;28;20031;-86
2020/12/01 09:35:08;;;;;;;2.58;1.52;;;3.90;99.90;;;;;;5114288;28;20046;-92
2020/12/01 09:37:34;;;;;;;5.95;2.10;;;4.00;99.90;;;;;;5114695;28;20050;-94
2020/12/01 09:40:00;;;;;;;5.95;1.92;;;4.20;99.90;;;;;;5114898;28;20051;-93
2020/12/01 09:42:32;;;;;;;9.70;2.28;;;4.40;99.90;;;;;;5115021;28;20023;-92
2020/12/01 09:49:57;;;;;;;5.47;1.40;;;5.10;99.90;;;;;;5118431;28;20035;-91
2020/12/01 09:52:29;;;;;;;7.35;1.30;;;5.40;99.90;;;;;;5110169;28;20024;-92
2020/12/01 09:55:09;;;;;;;4.93;1.38;;;5.60;99.90;;;;;;5098958;28;20052;-92
2020/12/01 10:04:18;;;;;;;7.22;1.55;;;6.30;99.90;;;;;;5109089;28;20609;-93
2020/12/01 10:32:31;;;;;;;3.45;0.95;;;9.00;99.90;;;;;;5120208;28;20080;-93
2020/12/01 10:37:35;;;;;;;4.55;1.08;;;9.50;99.90;;;;;;5117384;28;20042;-92
2020/12/01 10:40:01;;;;;;;2.47;0.88;;;9.80;99.90;;;;;;5101864;28;20044;-91
2020/12/01 10:42:27;;;;;;;1.23;0.60;;;10.00;99.60;;;;;;5094441;28;20035;-91
2020/12/01 10:44:52;;;;;;;1.70;0.82;;;10.30;98.60;;;;;;5094041;28;20119;-91
2020/12/01 10:47:18;;;;;;;3.75;0.80;;;10.50;97.70;;;;;;5094105;28;20539;-91
2020/12/01 10:49:44;;;;;;;4.97;0.70;;;10.80;96.70;;;;;;5092702;28;20039;-92
2020/12/01 10:52:09;;;;;;;4.57;1.13;;;10.80;94.50;;;;;;5092521;28;20024;-92
2020/12/01 10:54:35;;;;;;;5.70;1.10;;;10.70;93.10;;;;;;5098909;28;20055;-93
2020/12/01 10:57:01;;;;;;;4.03;1.10;;;10.80;93.20;;;;;;5113329;28;20019;-92
2020/12/01 10:59:27;;;;;;;4.65;1.05;;;11.00;92.70;;;;;;5113210;28;20522;-93
2020/12/01 11:01:53;;;;;;;4.32;0.80;;;11.20;92.10;;;;;;5111955;28;20034;-90
2020/12/01 11:04:20;;;;;;;5.18;0.88;;;11.40;91.60;;;;;;5111816;28;20503;-91
2020/12/01 11:06:45;;;;;;;2.53;0.77;;;11.60;91.10;;;;;;5112054;28;20024;-92
2020/12/01 11:09:12;;;;;;;4.85;1.05;;;11.80;90.70;;;;;;5117461;27;20023;-91
2020/12/01 11:11:38;;;;;;;2.15;0.82;;;12.00;90.00;;;;;;5101104;28;20031;-93
2020/12/01 11:14:05;;;;;;;2.33;0.63;;;12.20;88.50;;;;;;5112359;28;20174;-93
2020/12/01 11:16:30;;;;;;;2.30;0.60;;;12.50;87.50;;;;;;5112771;28;20042;-91
2020/12/01 11:18:56;;;;;;;1.60;0.70;;;12.80;86.10;;;;;;5112659;28;20027;-93
2020/12/01 11:21:25;;;;;;;4.68;0.88;;;13.10;84.90;;;;;;5111883;28;20431;-92
2020/12/01 11:23:51;;;;;;;3.60;1.50;;;13.20;84.00;;;;;;5112415;28;20085;-91
2020/12/01 11:26:21;;;;;;;1.92;0.75;;;13.30;82.80;;;;;;5112921;28;20035;-92
2020/12/01 11:28:50;;;;;;;4.43;1.00;;;13.40;81.30;;;;;;5109585;28;20049;-93
2020/12/01 11:31:17;;;;;;;1.83;0.38;;;13.50;80.40;;;;;;5111813;28;20031;-93
2020/12/01 11:33:55;;;;;;;2.60;0.70;;;13.60;79.50;;;;;;5111541;28;20476;-89
2020/12/01 11:36:24;;;;;;;9.02;0.75;;;13.60;78.60;;;;;;5110846;28;20020;-92
2020/12/01 11:38:50;;;;;;;5.15;0.73;;;13.50;77.10;;;;;;5111174;28;20122;-92
2020/12/01 11:41:16;;;;;;;3.47;0.90;;;13.50;76.50;;;;;;5111238;28;20458;-92
2020/12/01 11:43:41;;;;;;;4.97;0.90;;;13.40;76.20;;;;;;5111627;28;20080;-91
2020/12/01 11:46:07;;;;;;;5.00;1.58;;;13.50;76.40;;;;;;5111371;28;20058;-91
2020/12/01 11:48:33;;;;;;;4.65;0.90;;;13.70;75.80;;;;;;5111078;28;20114;-92
2020/12/01 11:50:58;;;;;;;2.78;0.73;;;13.90;74.70;;;;;;5111107;28;20034;-92
2020/12/01 11:53:24;;;;;;;3.33;0.50;;;13.90;74.00;;;;;;5111095;28;20015;-92
2020/12/01 11:55:50;;;;;;;2.35;0.60;;;13.80;73.70;;;;;;5111379;28;20060;-93
2020/12/01 11:58:15;;;;;;;4.18;0.70;;;13.40;73.50;;;;;;5111910;28;20024;-92
2020/12/01 12:00:41;;;;;;;8.25;1.00;;;13.00;73.90;;;;;;5112198;28;20051;-91
2020/12/01 12:03:07;;;;;;;4.00;0.70;;;12.50;74.50;;;;;;5112218;28;20020;-92
2020/12/01 12:05:32;;;;;;;9.88;1.48;;;12.00;75.00;;;;;;5111717;28;20055;-91
2020/12/01 12:07:58;;;;;;;6.13;1.40;;;11.50;75.90;;;;;;5111584;28;20035;-92
2020/12/01 12:10:24;;;;;;;3.55;0.70;;;11.10;77.00;;;;;;5111787;28;20015;-91
2020/12/01 12:12:51;;;;;;;2.47;0.60;;;10.90;77.90;;;;;;5111379;28;20423;-91
2020/12/01 12:15:17;;;;;;;6.20;1.45;;;10.80;78.70;;;;;;5111812;28;20070;-92
2020/12/01 12:17:42;;;;;;;3.38;0.68;;;11.10;79.30;;;;;;5111998;28;20019;-92
2020/12/01 12:20:08;;;;;;;5.97;0.80;;;11.80;79.00;;;;;;5111054;28;20035;-91
2020/12/01 12:22:33;;;;;;;1.83;0.50;;;12.50;77.60;;;;;;5111389;28;20051;-93
2020/12/01 12:24:59;;;;;;;3.50;1.05;;;13.00;76.00;;;;;;5111480;28;20488;-93
2020/12/01 12:27:25;;;;;;;3.38;0.80;;;13.40;74.80;;;;;;5094529;28;20027;-91
2020/12/01 12:29:50;;;;;;;1.77;0.50;;;13.90;73.70;;;;;;5091294;28;20062;-90
2020/12/01 12:32:16;;;;;;;2.63;0.70;;;14.40;72.40;;;;;;5091145;28;20453;-92
2020/12/01 12:34:42;;;;;;;3.25;0.75;;;14.70;71.30;;;;;;5090756;28;20039;-92
2020/12/01 12:37:08;;;;;;;7.55;0.80;;;15.00;70.00;;;;;;5091441;28;20028;-92
2020/12/01 12:39:33;;;;;;;3.78;0.93;;;15.00;69.00;;;;;;5091406;28;20084;-92
2020/12/01 12:41:59;;;;;;;3.83;0.93;;;15.00;68.60;;;;;;5090970;28;20039;-91
2020/12/01 12:44:25;;;;;;;4.10;0.60;;;15.00;68.40;;;;;;5091285;28;20587;-93
2020/12/01 12:46:51;;;;;;;5.03;0.80;;;15.10;68.30;;;;;;5091579;28;20055;-93
2020/12/01 12:49:16;;;;;;;3.45;0.77;;;15.10;67.90;;;;;;5094896;28;20027;-91
2020/12/01 12:51:42;;;;;;;4.10;0.80;;;15.00;67.20;;;;;;5094788;28;20077;-93
2020/12/01 12:54:08;;;;;;;5.82;1.17;;;15.00;67.20;;;;;;5094440;28;20110;-92
2020/12/01 12:56:33;;;;;;;8.55;1.20;;;15.00;66.80;;;;;;5095310;28;20085;-92
2020/12/01 12:58:59;;;;;;;5.80;0.80;;;15.10;66.60;;;;;;5094826;28;20028;-92
2020/12/01 13:01:25;;;;;;;5.10;0.93;;;15.10;66.10;;;;;;5098012;28;20032;-91
2020/12/01 13:03:50;;;;;;;3.75;1.25;;;15.10;65.70;;;;;;5094429;28;20051;-93
2020/12/01 13:06:16;;;;;;;6.57;1.70;;;15.10;65.40;;;;;;5094800;28;20094;-93
2020/12/01 13:08:42;;;;;;;5.22;1.08;;;15.20;65.20;;;;;;5096252;28;20111;-91
2020/12/01 13:11:11;;;;;;;3.47;0.70;;;15.20;64.80;;;;;;5104639;28;20388;-91
2020/12/01 13:13:37;;;;;;;5.85;0.77;;;15.10;64.00;;;;;;5103830;28;20024;-91
2020/12/01 13:16:04;;;;;;;5.50;1.02;;;15.10;63.90;;;;;;5099649;28;20027;-91
2020/12/01 13:18:29;;;;;;;3.47;0.70;;;15.00;63.50;;;;;;5091856;28;20118;-90
2020/12/01 13:20:55;;;;;;;6.43;0.68;;;14.90;63.70;;;;;;5100789;28;20107;-90
2020/12/01 13:23:21;;;;;;;5.40;0.90;;;15.00;63.90;;;;;;5097928;28;20023;-92
2020/12/01 13:25:47;;;;;;;6.53;1.00;;;14.90;63.10;;;;;;5114212;28;20122;-92
2020/12/01 13:28:12;;;;;;;3.22;0.88;;;14.90;63.00;;;;;;5115416;28;20015;-91
2020/12/01 13:30:38;;;;;;;5.57;0.80;;;14.90;62.80;;;;;;5114685;28;20118;-93
2020/12/01 13:33:04;;;;;;;5.88;1.20;;;14.80;62.70;;;;;;5114846;28;20429;-92
2020/12/01 13:35:29;;;;;;;5.95;0.80;;;14.70;62.70;;;;;;5115028;28;20081;-92
2020/12/01 13:37:55;;;;;;;3.42;0.90;;;14.40;62.60;;;;;;5114598;28;20427;-91
2020/12/01 13:40:23;;;;;;;7.25;0.93;;;14.00;63.00;;;;;;5093837;28;20480;-92
2020/12/01 13:42:50;;;;;;;7.80;0.70;;;13.70;63.90;;;;;;5110471;28;20019;-92
2020/12/01 13:45:17;;;;;;;2.50;0.60;;;13.30;64.40;;;;;;5106439;28;20408;-92
2020/12/01 13:47:44;;;;;;;3.97;1.10;;;13.00;65.00;;;;;;5114406;28;20434;-92
2020/12/01 13:50:13;;;;;;;4.72;0.80;;;13.00;65.40;;;;;;5100949;28;20489;-91
2020/12/01 13:52:40;;;;;;;6.95;0.93;;;13.20;65.30;;;;;;5105063;28;20388;-92
2020/12/01 13:55:07;;;;;;;5.65;0.60;;;13.30;65.20;;;;;;5097402;28;20020;-93
2020/12/01 13:57:36;;;;;;;1.92;0.50;;;13.10;65.40;;;;;;5113483;28;20030;-92
2020/12/01 14:00:08;;;;;;;10.10;1.33;;;12.60;66.00;;;;;;5104498;28;20066;-92
2020/12/01 14:02:33;;;;;;;4.22;0.80;;;12.10;66.80;;;;;;5119910;27;20096;-92